createdAt,value
2023-04-13T00:01:18.769Z,95891.00
2023-04-13T00:03:45.238Z,95867.00
2023-04-13T00:06:11.597Z,95870.00
2023-04-13T00:08:38.114Z,95864.00
2023-04-13T00:11:06.678Z,95865.00
2023-04-13T00:13:40.071Z,95851.00
2023-04-13T00:16:09.274Z,95865.00
2023-04-13T00:18:35.429Z,95832.00
2023-04-13T00:21:01.785Z,95846.00
2023-04-13T00:23:28.145Z,95836.00
2023-04-13T00:25:54.283Z,95858.00
2023-04-13T00:28:20.905Z,95856.00
2023-04-13T00:30:47.097Z,95853.00
2023-04-13T00:33:13.332Z,95841.00
2023-04-13T00:35:39.730Z,95843.00
2023-04-13T00:38:05.932Z,95834.00
2023-04-13T00:40:32.335Z,95833.00
2023-04-13T00:43:00.047Z,95821.00
2023-04-13T00:45:27.450Z,95818.00
2023-04-13T00:47:57.087Z,95815.00
2023-04-13T00:50:23.447Z,95819.00
2023-04-13T00:52:49.747Z,95824.00
2023-04-13T00:55:20.301Z,95826.00
2023-04-13T00:57:49.277Z,95816.00
2023-04-13T01:00:19.858Z,95809.00
2023-04-13T01:02:46.390Z,95803.00
2023-04-13T01:05:14.794Z,95809.00
2023-04-13T01:08:09.381Z,95798.00
2023-04-13T01:11:00.991Z,95802.00
2023-04-13T01:14:02.340Z,95796.00
2023-04-13T01:16:45.290Z,95800.00
2023-04-13T01:19:32.822Z,95807.00
2023-04-13T01:22:01.127Z,95801.00
2023-04-13T01:24:45.992Z,95801.00
2023-04-13T01:27:20.175Z,95791.00
2023-04-13T01:29:48.996Z,95792.00
2023-04-13T01:32:16.375Z,95810.00
2023-04-13T01:34:44.661Z,95792.00
2023-04-13T01:37:11.673Z,95813.00
2023-04-13T01:39:37.795Z,95788.00
2023-04-13T01:42:14.371Z,95796.00
2023-04-13T01:44:41.719Z,95792.00
2023-04-13T01:47:17.884Z,95793.00
2023-04-13T01:50:03.213Z,95790.00
2023-04-13T01:52:49.484Z,95788.00
2023-04-13T01:55:16.790Z,95791.00
2023-04-13T01:57:51.235Z,95788.00
2023-04-13T02:00:20.321Z,95785.00
2023-04-13T02:02:48.480Z,95773.00
2023-04-13T02:05:15.037Z,95783.00
2023-04-13T02:07:44.055Z,95791.00
2023-04-13T02:10:11.250Z,95794.00
2023-04-13T02:12:37.762Z,95790.00
2023-04-13T02:15:06.221Z,95779.00
2023-04-13T02:17:32.498Z,95789.00
2023-04-13T02:19:59.884Z,95775.00
2023-04-13T02:22:26.696Z,95778.00
2023-04-13T02:24:54.168Z,95787.00
2023-04-13T02:27:23.390Z,95788.00
2023-04-13T02:29:51.832Z,95786.00
2023-04-13T02:32:18.563Z,95792.00
2023-04-13T02:34:44.794Z,95794.00
2023-04-13T02:37:11.144Z,95785.00
2023-04-13T02:39:37.435Z,95783.00
2023-04-13T02:42:04.681Z,95789.00
2023-04-13T02:44:33.555Z,95804.00
2023-04-13T02:47:00.660Z,95783.00
2023-04-13T02:49:26.876Z,95797.00
2023-04-13T02:51:59.084Z,95783.00
2023-04-13T02:54:38.336Z,95806.00
2023-04-13T02:57:04.845Z,95804.00
2023-04-13T02:59:34.107Z,95808.00
2023-04-13T03:02:01.942Z,95798.00
2023-04-13T03:04:30.643Z,95799.00
2023-04-13T03:06:57.656Z,95799.00
2023-04-13T03:09:26.300Z,95803.00
2023-04-13T03:11:55.964Z,95814.00
2023-04-13T03:14:23.481Z,95802.00
2023-04-13T03:17:04.168Z,95797.00
2023-04-13T03:19:36.881Z,95798.00
2023-04-13T03:22:04.028Z,95795.00
2023-04-13T03:24:31.601Z,95779.00
2023-04-13T03:27:03.397Z,95806.00
2023-04-13T03:29:37.840Z,95794.00
2023-04-13T03:32:05.746Z,95803.00
2023-04-13T03:34:34.971Z,95798.00
2023-04-13T03:37:07.028Z,95810.00
2023-04-13T03:39:33.146Z,95805.00
2023-04-13T03:42:00.930Z,95790.00
2023-04-13T03:44:27.384Z,95805.00
2023-04-13T03:46:53.827Z,95788.00
2023-04-13T03:49:29.891Z,95799.00
2023-04-13T03:51:58.161Z,95790.00
2023-04-13T03:54:26.594Z,95796.00
2023-04-13T03:56:52.958Z,95809.00
2023-04-13T03:59:19.086Z,95803.00
2023-04-13T04:01:45.651Z,95809.00
2023-04-13T04:04:11.981Z,95814.00
2023-04-13T04:06:38.200Z,95803.00
2023-04-13T04:09:11.865Z,95814.00
2023-04-13T04:11:44.724Z,95820.00
2023-04-13T04:14:12.391Z,95812.00
2023-04-13T04:16:46.541Z,95817.00
2023-04-13T04:19:14.846Z,95829.00
2023-04-13T04:21:43.902Z,95811.00
2023-04-13T04:24:19.798Z,95821.00
2023-04-13T04:26:49.328Z,95816.00
2023-04-13T04:29:17.108Z,95831.00
2023-04-13T04:31:43.723Z,95834.00
2023-04-13T04:34:16.309Z,95827.00
2023-04-13T04:36:44.739Z,95833.00
2023-04-13T04:39:13.509Z,95849.00
2023-04-13T04:41:53.538Z,95847.00
2023-04-13T04:44:24.348Z,95842.00
2023-04-13T04:46:51.800Z,95836.00
2023-04-13T04:49:20.745Z,95842.00
2023-04-13T04:51:48.901Z,95862.00
2023-04-13T04:54:16.486Z,95831.00
2023-04-13T04:56:46.998Z,95844.00
2023-04-13T04:59:13.841Z,95853.00
2023-04-13T05:01:52.623Z,95850.00
2023-04-13T05:04:19.322Z,95847.00
2023-04-13T05:06:46.230Z,95835.00
2023-04-13T05:09:18.408Z,95863.00
2023-04-13T05:11:48.345Z,95850.00
2023-04-13T05:14:15.736Z,95859.00
2023-04-13T05:16:41.892Z,95859.00
2023-04-13T05:19:22.112Z,95864.00
2023-04-13T05:21:53.455Z,95861.00
2023-04-13T05:24:21.343Z,95885.00
2023-04-13T05:26:48.444Z,95881.00
2023-04-13T05:29:20.387Z,95888.00
2023-04-13T05:31:48.146Z,95884.00
2023-04-13T05:34:15.779Z,95896.00
2023-04-13T05:36:54.734Z,95904.00
2023-04-13T05:39:21.209Z,95885.00
2023-04-13T05:41:48.088Z,95902.00
2023-04-13T05:44:16.042Z,95891.00
2023-04-13T05:46:42.722Z,95895.00
2023-04-13T05:49:11.047Z,95895.00
2023-04-13T05:51:38.654Z,95906.00
2023-04-13T05:54:05.660Z,95932.00
2023-04-13T05:56:33.506Z,95906.00
2023-04-13T05:59:00.637Z,95915.00
2023-04-13T06:01:29.611Z,95922.00
2023-04-13T06:03:56.361Z,95945.00
2023-04-13T06:06:24.148Z,95931.00
2023-04-13T06:08:52.237Z,95934.00
2023-04-13T06:11:20.096Z,95952.00
2023-04-13T06:13:46.226Z,95967.00
2023-04-13T06:16:12.785Z,95959.00
2023-04-13T06:18:38.913Z,95971.00
2023-04-13T06:21:06.288Z,95984.00
2023-04-13T06:23:32.485Z,95976.00
2023-04-13T06:26:03.712Z,95978.00
2023-04-13T06:28:42.111Z,95985.00
2023-04-13T06:31:08.318Z,95994.00
2023-04-13T06:33:34.516Z,96003.00
2023-04-13T06:36:01.635Z,96007.00
2023-04-13T06:38:29.479Z,96006.00
2023-04-13T06:41:02.216Z,95999.00
2023-04-13T06:43:30.794Z,96004.00
2023-04-13T06:46:13.661Z,96002.00
2023-04-13T06:48:41.605Z,96009.00
2023-04-13T06:51:07.816Z,96022.00
2023-04-13T06:53:35.646Z,96011.00
2023-04-13T06:56:01.875Z,96033.00
2023-04-13T06:58:29.439Z,96033.00
2023-04-13T07:00:55.625Z,96032.00
2023-04-13T07:03:23.040Z,96038.00
2023-04-13T07:05:49.706Z,96045.00
2023-04-13T07:08:18.390Z,96051.00
2023-04-13T07:10:46.021Z,96039.00
2023-04-13T07:13:32.669Z,96048.00
2023-04-13T07:15:59.117Z,96045.00
2023-04-13T07:18:25.565Z,96053.00
2023-04-13T07:20:53.302Z,96057.00
2023-04-13T07:23:22.896Z,96047.00
2023-04-13T07:25:49.349Z,96040.00
2023-04-13T07:28:21.160Z,96057.00
2023-04-13T07:30:50.125Z,96060.00
2023-04-13T07:33:16.421Z,96056.00
2023-04-13T07:35:42.930Z,96043.00
2023-04-13T07:38:11.116Z,96057.00
2023-04-13T07:40:37.416Z,96073.00
2023-04-13T07:43:07.664Z,96070.00
2023-04-13T07:45:37.587Z,96076.00
2023-04-13T07:48:06.038Z,96080.00
2023-04-13T07:50:41.219Z,96086.00
2023-04-13T07:53:10.689Z,96096.00
2023-04-13T07:55:37.218Z,96101.00
2023-04-13T07:58:05.299Z,96109.00
2023-04-13T08:00:31.509Z,96109.00
2023-04-13T08:03:00.731Z,96113.00
2023-04-13T08:05:28.865Z,96105.00
2023-04-13T08:07:56.259Z,96113.00
2023-04-13T08:10:22.748Z,96100.00
2023-04-13T08:12:49.106Z,96120.00
2023-04-13T08:15:17.788Z,96125.00
2023-04-13T08:17:44.236Z,96111.00
2023-04-13T08:20:12.774Z,96116.00
2023-04-13T08:22:39.871Z,96125.00
2023-04-13T08:25:06.430Z,96123.00
2023-04-13T08:27:33.484Z,96134.00
2023-04-13T08:30:01.498Z,96127.00
2023-04-13T08:32:35.069Z,96119.00
2023-04-13T08:35:06.442Z,96121.00
2023-04-13T08:37:33.963Z,96124.00
2023-04-13T08:40:06.885Z,96126.00
2023-04-13T08:42:34.199Z,96134.00
2023-04-13T08:45:02.777Z,96133.00
2023-04-13T08:47:29.712Z,96122.00
2023-04-13T08:50:02.112Z,96141.00
2023-04-13T08:52:43.485Z,96131.00
2023-04-13T08:55:15.158Z,96149.00
2023-04-13T08:57:48.440Z,96148.00
2023-04-13T09:00:21.154Z,96156.00
2023-04-13T09:03:02.539Z,96157.00
2023-04-13T09:05:33.555Z,96164.00
2023-04-13T09:08:06.085Z,96170.00
2023-04-13T09:10:32.522Z,96178.00
2023-04-13T09:12:58.929Z,96168.00
2023-04-13T09:15:25.892Z,96168.00
2023-04-13T09:18:13.104Z,96187.00
2023-04-13T09:21:00.703Z,96190.00
2023-04-13T09:23:27.088Z,96199.00
2023-04-13T09:26:08.954Z,96200.00
2023-04-13T09:28:50.564Z,96227.00
2023-04-13T09:31:16.896Z,96229.00
2023-04-13T09:33:49.235Z,96229.00
2023-04-13T09:36:21.976Z,96228.00
2023-04-13T09:38:56.523Z,96214.00
2023-04-13T09:41:37.485Z,96236.00
2023-04-13T09:44:27.351Z,96221.00
2023-04-13T09:47:07.994Z,96219.00
2023-04-13T09:49:42.430Z,96230.00
2023-04-13T09:52:22.533Z,96237.00
2023-04-13T09:55:13.195Z,96235.00
2023-04-13T09:57:39.345Z,96222.00
2023-04-13T10:00:14.424Z,96230.00
2023-04-13T10:02:41.737Z,96238.00
2023-04-13T10:05:11.660Z,96243.00
2023-04-13T10:07:39.220Z,96242.00
2023-04-13T10:10:07.152Z,96230.00
2023-04-13T10:12:37.110Z,96238.00
2023-04-13T10:15:42.849Z,96234.00
2023-04-13T10:18:20.999Z,96241.00
2023-04-13T10:20:50.080Z,96260.00
2023-04-13T10:23:18.262Z,96257.00
2023-04-13T10:25:56.753Z,96266.00
2023-04-13T10:28:25.995Z,96259.00
2023-04-13T10:30:53.533Z,96263.00
2023-04-13T10:33:20.103Z,96248.00
2023-04-13T10:35:57.715Z,96251.00
2023-04-13T10:38:24.444Z,96263.00
2023-04-13T10:40:51.034Z,96268.00
2023-04-13T10:43:31.723Z,96247.00
2023-04-13T10:46:12.917Z,96253.00
2023-04-13T10:48:42.824Z,96258.00
2023-04-13T10:51:08.936Z,96250.00
2023-04-13T10:53:36.049Z,96246.00
2023-04-13T10:56:02.166Z,96243.00
2023-04-13T10:58:33.026Z,96253.00
2023-04-13T11:00:59.930Z,96248.00
2023-04-13T11:03:27.931Z,96267.00
2023-04-13T11:05:59.299Z,96267.00
2023-04-13T11:08:27.069Z,96266.00
2023-04-13T11:10:55.136Z,96269.00
2023-04-13T11:13:24.462Z,96270.00
2023-04-13T11:15:51.238Z,96293.00
2023-04-13T11:18:28.182Z,96317.00
2023-04-13T11:20:56.094Z,96323.00
2023-04-13T11:23:23.284Z,96324.00
2023-04-13T11:25:53.987Z,96332.00
2023-04-13T11:28:22.629Z,96326.00
2023-04-13T11:30:55.558Z,96331.00
2023-04-13T11:33:27.208Z,96325.00
2023-04-13T11:35:56.097Z,96319.00
2023-04-13T11:38:23.064Z,96331.00
2023-04-13T11:40:53.368Z,96321.00
2023-04-13T11:43:23.968Z,96316.00
2023-04-13T11:45:50.219Z,96316.00
2023-04-13T11:48:17.928Z,96316.00
2023-04-13T11:50:48.560Z,96324.00
2023-04-13T11:53:16.008Z,96310.00
2023-04-13T11:55:52.948Z,96315.00
2023-04-13T11:58:20.851Z,96308.00
2023-04-13T12:00:48.252Z,96303.00
2023-04-13T12:05:48.401Z,96307.00
2023-04-13T12:08:25.618Z,96309.00
2023-04-13T12:11:15.493Z,96310.00
2023-04-13T12:13:50.306Z,96307.00
2023-04-13T12:16:55.381Z,96306.00
2023-04-13T12:19:14.281Z,96308.00
2023-04-13T12:21:56.001Z,96311.00
2023-04-13T12:24:34.991Z,96321.00
2023-04-13T12:27:17.648Z,96317.00
2023-04-13T12:29:45.524Z,96327.00
2023-04-13T12:32:15.624Z,96331.00
2023-04-13T12:34:43.397Z,96310.00
2023-04-13T12:37:12.584Z,96318.00
2023-04-13T12:39:39.106Z,96324.00
2023-04-13T12:42:05.753Z,96325.00
2023-04-13T12:44:34.068Z,96324.00
2023-04-13T12:47:00.845Z,96314.00
2023-04-13T12:49:26.979Z,96333.00
2023-04-13T12:51:53.090Z,96343.00
2023-04-13T12:54:19.186Z,96335.00
2023-04-13T12:56:45.351Z,96333.00
2023-04-13T12:59:11.571Z,96337.00
2023-04-13T13:01:38.210Z,96358.00
2023-04-13T13:04:05.650Z,96355.00
2023-04-13T13:06:33.235Z,96353.00
2023-04-13T13:09:00.041Z,96371.00
2023-04-13T13:11:26.959Z,96369.00
2023-04-13T13:13:53.202Z,96361.00
2023-04-13T13:16:19.332Z,96373.00
2023-04-13T13:19:02.787Z,96365.00
2023-04-13T13:21:29.157Z,96371.00
2023-04-13T13:23:55.369Z,96368.00
2023-04-13T13:26:24.290Z,96371.00
2023-04-13T13:28:53.439Z,96372.00
2023-04-13T13:31:19.777Z,96377.00
2023-04-13T13:33:46.166Z,96364.00
2023-04-13T13:36:15.407Z,96357.00
2023-04-13T13:38:42.434Z,96376.00
2023-04-13T13:41:08.598Z,96368.00
2023-04-13T13:43:35.153Z,96366.00
2023-04-13T13:46:01.563Z,96372.00
2023-04-13T13:48:27.849Z,96367.00
2023-04-13T13:51:04.462Z,96379.00
2023-04-13T13:53:32.561Z,96363.00
2023-04-13T13:55:58.945Z,96366.00
2023-04-13T13:58:25.290Z,96367.00
2023-04-13T14:00:51.463Z,96367.00
2023-04-13T14:03:18.220Z,96365.00
2023-04-13T14:05:45.040Z,96364.00
2023-04-13T14:08:11.637Z,96362.00
2023-04-13T14:10:38.611Z,96367.00
2023-04-13T14:13:05.360Z,96366.00
2023-04-13T14:15:31.503Z,96365.00
2023-04-13T14:18:09.800Z,96371.00
2023-04-13T14:20:37.907Z,96360.00
2023-04-13T14:23:04.586Z,96373.00
2023-04-13T14:25:30.784Z,96380.00
2023-04-13T14:27:57.156Z,96374.00
2023-04-13T14:30:24.484Z,96392.00
2023-04-13T14:32:52.519Z,96379.00
2023-04-13T14:35:19.538Z,96389.00
2023-04-13T14:37:46.806Z,96386.00
2023-04-13T14:40:17.990Z,96388.00
2023-04-13T14:42:46.083Z,96400.00
2023-04-13T14:45:12.710Z,96411.00
2023-04-13T14:47:39.315Z,96385.00
2023-04-13T14:50:07.732Z,96387.00
2023-04-13T14:52:34.129Z,96385.00
2023-04-13T14:55:00.926Z,96383.00
2023-04-13T14:57:27.640Z,96389.00
2023-04-13T14:59:55.818Z,96385.00
2023-04-13T15:02:22.690Z,96381.00
2023-04-13T15:04:49.396Z,96381.00
2023-04-13T15:07:15.997Z,96389.00
2023-04-13T15:09:42.112Z,96403.00
2023-04-13T15:12:11.906Z,96389.00
2023-04-13T15:14:40.339Z,96388.00
2023-04-13T15:17:07.630Z,96396.00
2023-04-13T15:19:34.042Z,96401.00
2023-04-13T15:22:00.434Z,96403.00
2023-04-13T15:24:26.825Z,96399.00
2023-04-13T15:26:53.076Z,96398.00
2023-04-13T15:29:19.962Z,96418.00
2023-04-13T15:31:46.129Z,96417.00
2023-04-13T15:34:12.328Z,96418.00
2023-04-13T15:36:38.768Z,96408.00
2023-04-13T15:39:05.444Z,96417.00
2023-04-13T15:41:31.887Z,96426.00
2023-04-13T15:44:02.462Z,96424.00
2023-04-13T15:46:29.236Z,96422.00
2023-04-13T15:48:55.603Z,96430.00
2023-04-13T15:51:22.807Z,96433.00
2023-04-13T15:53:49.157Z,96445.00
2023-04-13T15:56:15.794Z,96451.00
2023-04-13T15:58:42.210Z,96459.00
2023-04-13T16:01:10.701Z,96448.00
2023-04-13T16:03:37.799Z,96461.00
2023-04-13T16:06:04.307Z,96454.00
2023-04-13T16:08:30.570Z,96464.00
2023-04-13T16:10:56.994Z,96467.00
2023-04-13T16:13:23.521Z,96459.00
2023-04-13T16:15:56.359Z,96463.00
2023-04-13T16:18:27.903Z,96463.00
2023-04-13T16:20:57.955Z,96477.00
2023-04-13T16:23:26.446Z,96463.00
2023-04-13T16:25:53.848Z,96486.00
2023-04-13T16:28:20.366Z,96486.00
2023-04-13T16:30:48.595Z,96505.00
2023-04-13T16:33:15.039Z,96492.00
2023-04-13T16:35:41.166Z,96500.00
2023-04-13T16:38:07.394Z,96493.00
2023-04-13T16:40:33.573Z,96495.00
2023-04-13T16:43:03.598Z,96506.00
2023-04-13T16:45:29.889Z,96523.00
2023-04-13T16:47:56.079Z,96523.00
2023-04-13T16:50:22.240Z,96512.00
2023-04-13T16:52:48.419Z,96524.00
2023-04-13T16:55:15.209Z,96508.00
2023-04-13T16:57:42.996Z,96509.00
2023-04-13T17:00:11.105Z,96522.00
2023-04-13T17:02:39.909Z,96511.00
2023-04-13T17:05:09.294Z,96525.00
2023-04-13T17:07:40.315Z,96531.00
2023-04-13T17:10:08.184Z,96526.00
2023-04-13T17:12:35.518Z,96524.00
2023-04-13T17:15:01.982Z,96523.00
2023-04-13T17:17:28.246Z,96507.00
2023-04-13T17:19:54.503Z,96512.00
2023-04-13T17:22:21.715Z,96519.00
2023-04-13T17:24:49.065Z,96522.00
2023-04-13T17:27:16.277Z,96514.00
2023-04-13T17:29:42.391Z,96523.00
2023-04-13T17:32:08.779Z,96532.00
2023-04-13T17:34:34.979Z,96536.00
2023-04-13T17:37:01.624Z,96534.00
2023-04-13T17:39:28.600Z,96548.00
2023-04-13T17:41:55.302Z,96553.00
2023-04-13T17:44:21.664Z,96562.00
2023-04-13T17:46:49.712Z,96568.00
2023-04-13T17:49:16.193Z,96590.00
2023-04-13T17:51:46.911Z,96579.00
2023-04-13T17:54:13.159Z,96577.00
2023-04-13T17:56:39.581Z,96582.00
2023-04-13T17:59:05.833Z,96594.00
2023-04-13T18:01:31.977Z,96586.00
2023-04-13T18:03:59.574Z,96601.00
2023-04-13T18:06:26.773Z,96603.00
2023-04-13T18:08:53.130Z,96598.00
2023-04-13T18:11:19.235Z,96602.00
2023-04-13T18:13:45.375Z,96599.00
2023-04-13T18:16:14.102Z,96597.00
2023-04-13T18:18:40.917Z,96598.00
2023-04-13T18:21:07.490Z,96601.00
2023-04-13T18:23:33.596Z,96620.00
2023-04-13T18:26:01.348Z,96620.00
2023-04-13T18:28:28.807Z,96625.00
2023-04-13T18:31:00.025Z,96635.00
2023-04-13T18:33:27.063Z,96640.00
2023-04-13T18:35:53.347Z,96631.00
2023-04-13T18:38:19.904Z,96641.00
2023-04-13T18:40:46.319Z,96645.00
2023-04-13T18:43:12.457Z,96657.00
2023-04-13T18:45:38.818Z,96654.00
2023-04-13T18:48:06.475Z,96664.00
2023-04-13T18:50:32.913Z,96653.00
2023-04-13T18:52:59.049Z,96663.00
2023-04-13T18:55:26.000Z,96662.00
2023-04-13T18:57:52.128Z,96670.00
2023-04-13T19:00:18.658Z,96669.00
2023-04-13T19:02:48.783Z,96665.00
2023-04-13T19:05:15.209Z,96675.00
2023-04-13T19:07:53.158Z,96670.00
2023-04-13T19:10:20.972Z,96673.00
2023-04-13T19:12:48.335Z,96684.00
2023-04-13T19:15:14.918Z,96690.00
2023-04-13T19:17:41.469Z,96683.00
2023-04-13T19:20:09.830Z,96685.00
2023-04-13T19:22:37.325Z,96673.00
2023-04-13T19:25:04.324Z,96681.00
2023-04-13T19:27:30.681Z,96680.00
2023-04-13T19:29:56.815Z,96689.00
2023-04-13T19:32:23.982Z,96695.00
2023-04-13T19:34:50.641Z,96692.00
2023-04-13T19:37:16.882Z,96698.00
2023-04-13T19:39:43.155Z,96703.00
2023-04-13T19:42:09.814Z,96704.00
2023-04-13T19:44:36.186Z,96692.00
2023-04-13T19:47:02.838Z,96701.00
2023-04-13T19:49:29.042Z,96707.00
2023-04-13T19:51:55.363Z,96712.00
2023-04-13T19:54:21.493Z,96712.00
2023-04-13T19:56:47.641Z,96699.00
2023-04-13T19:59:14.044Z,96710.00
2023-04-13T20:01:40.522Z,96725.00
2023-04-13T20:04:07.968Z,96721.00
2023-04-13T20:06:34.220Z,96705.00
2023-04-13T20:09:13.896Z,96712.00
2023-04-13T20:11:40.979Z,96717.00
2023-04-13T20:14:08.772Z,96719.00
2023-04-13T20:16:35.074Z,96717.00
2023-04-13T20:19:01.246Z,96713.00
2023-04-13T20:21:30.283Z,96732.00
2023-04-13T20:23:57.337Z,96729.00
2023-04-13T20:26:27.448Z,96722.00
2023-04-13T20:29:02.616Z,96730.00
2023-04-13T20:31:30.621Z,96720.00
2023-04-13T20:33:57.753Z,96722.00
2023-04-13T20:36:24.900Z,96721.00
2023-04-13T20:38:51.855Z,96714.00
2023-04-13T20:41:18.541Z,96733.00
2023-04-13T20:43:44.765Z,96735.00
2023-04-13T20:46:10.939Z,96722.00
2023-04-13T20:51:15.250Z,96719.00
2023-04-13T20:53:41.760Z,96722.00
2023-04-13T20:56:08.389Z,96721.00
2023-04-13T20:58:36.507Z,96732.00
2023-04-13T21:01:04.016Z,96723.00
2023-04-13T21:03:31.311Z,96725.00
2023-04-13T21:05:58.775Z,96733.00
2023-04-13T21:08:26.590Z,96727.00
2023-04-13T21:10:52.934Z,96726.00
2023-04-13T21:13:19.201Z,96725.00
2023-04-13T21:15:46.576Z,96745.00
2023-04-13T21:18:12.697Z,96743.00
2023-04-13T21:20:42.339Z,96729.00
2023-04-13T21:23:08.953Z,96730.00
2023-04-13T21:25:36.719Z,96717.00
2023-04-13T21:28:03.187Z,96727.00
2023-04-13T21:30:29.339Z,96730.00
2023-04-13T21:32:55.614Z,96742.00
2023-04-13T21:35:22.059Z,96742.00
2023-04-13T21:37:48.435Z,96744.00
2023-04-13T21:40:15.414Z,96743.00
2023-04-13T21:42:41.488Z,96740.00
2023-04-13T21:45:08.669Z,96733.00
2023-04-13T21:47:35.351Z,96759.00
2023-04-13T21:50:01.749Z,96755.00
2023-04-13T21:52:28.555Z,96755.00
2023-04-13T21:54:55.377Z,96763.00
2023-04-13T21:57:21.846Z,96755.00
2023-04-13T21:59:48.203Z,96734.00
2023-04-13T22:02:15.109Z,96757.00
2023-04-13T22:04:41.295Z,96765.00
2023-04-13T22:07:07.738Z,96765.00
2023-04-13T22:09:33.868Z,96762.00
2023-04-13T22:12:00.121Z,96756.00
2023-04-13T22:14:26.505Z,96752.00
2023-04-13T22:16:53.224Z,96751.00
2023-04-13T22:19:19.759Z,96759.00
2023-04-13T22:21:45.939Z,96763.00
2023-04-13T22:24:13.193Z,96765.00
2023-04-13T22:26:39.532Z,96757.00
2023-04-13T22:29:06.293Z,96769.00
2023-04-13T22:31:32.465Z,96767.00
2023-04-13T22:33:58.640Z,96770.00
2023-04-13T22:36:24.777Z,96754.00
2023-04-13T22:38:51.242Z,96765.00
2023-04-13T22:41:17.408Z,96760.00
2023-04-13T22:43:43.820Z,96775.00
2023-04-13T22:46:10.042Z,96763.00
2023-04-13T22:48:36.248Z,96763.00
2023-04-13T22:51:05.353Z,96770.00
2023-04-13T22:53:31.553Z,96779.00
2023-04-13T22:55:59.649Z,96754.00
2023-04-13T22:58:26.099Z,96782.00
2023-04-13T23:00:52.452Z,96758.00
2023-04-13T23:03:18.777Z,96771.00
2023-04-13T23:05:45.119Z,96773.00
2023-04-13T23:08:11.235Z,96772.00
2023-04-13T23:10:37.693Z,96776.00
2023-04-13T23:13:04.242Z,96757.00
2023-04-13T23:15:30.405Z,96767.00
2023-04-13T23:17:56.611Z,96786.00
2023-04-13T23:20:23.331Z,96766.00
2023-04-13T23:22:49.718Z,96768.00
2023-04-13T23:25:16.404Z,96776.00
2023-04-13T23:27:42.547Z,96768.00
2023-04-13T23:30:09.815Z,96768.00
2023-04-13T23:32:36.008Z,96772.00
2023-04-13T23:35:02.301Z,96777.00
2023-04-13T23:37:28.473Z,96782.00
2023-04-13T23:39:54.643Z,96781.00
2023-04-13T23:42:20.996Z,96778.00
2023-04-13T23:44:47.552Z,96771.00
2023-04-13T23:47:13.960Z,96772.00
2023-04-13T23:49:40.872Z,96780.00
2023-04-13T23:52:06.993Z,96779.00
2023-04-13T23:54:33.473Z,96774.00
2023-04-13T23:56:59.853Z,96775.00
2023-04-13T23:59:25.991Z,96794.00
